Time;durP1;ratioP1;P1;durP2;ratioP2;P2;SDS_P1;SDS_P2;PMS_P1;PMS_P2;Temp;Humidity;BMP_temperature;BMP_pressure;BME280_temperature;BME280_humidity;BME280_pressure;Samples;Min_cycle;Max_cycle;Signal;HPM_P1;HPM_P2
2022/12/04 00:01:58;;;;;;;67.38;53.25;;;;;;;0.89;100.00;102623.03;5091103;28;20146;-85
2022/12/04 00:04:35;;;;;;;67.82;53.35;;;;;;;0.89;100.00;102620.44;5087850;28;20048;-85
2022/12/04 00:07:11;;;;;;;76.40;57.55;;;;;;;0.80;100.00;102607.91;5096723;28;20052;-88
2022/12/04 00:09:40;;;;;;;71.28;56.15;;;;;;;0.69;100.00;102627.72;5080293;28;20482;-85
2022/12/04 00:12:07;;;;;;;74.28;56.55;;;;;;;0.77;100.00;102611.56;5097129;28;20055;-86
2022/12/04 00:14:36;;;;;;;84.18;56.75;;;;;;;0.86;100.00;102624.06;5096880;28;20044;-85
2022/12/04 00:17:12;;;;;;;69.30;53.50;;;;;;;0.78;100.00;102626.31;5115172;28;20051;-85
2022/12/04 00:19:53;;;;;;;70.50;53.97;;;;;;;0.86;100.00;102628.47;5102376;27;20056;-85
2022/12/04 00:22:27;;;;;;;67.43;52.42;;;;;;;0.90;100.00;102627.31;5091926;28;20495;-86
2022/12/04 00:25:08;;;;;;;72.65;54.45;;;;;;;1.37;100.00;102626.09;5096460;28;20051;-85
2022/12/04 00:27:35;;;;;;;70.65;52.55;;;;;;;0.90;100.00;102622.94;5096760;28;20051;-85
2022/12/04 00:30:07;;;;;;;69.10;56.30;;;;;;;0.83;100.00;102633.88;5096880;28;20052;-84
2022/12/04 00:32:41;;;;;;;64.18;54.72;;;;;;;0.77;100.00;102631.66;5096696;28;20109;-87
2022/12/04 00:35:11;;;;;;;67.53;52.67;;;;;;;0.93;100.00;102626.31;5096159;28;20048;-85
2022/12/04 00:37:39;;;;;;;70.18;52.55;;;;;;;0.78;100.00;102618.47;5096150;28;20089;-85
2022/12/04 00:40:19;;;;;;;67.10;52.97;;;;;;;1.00;100.00;102627.59;5096464;28;20117;-86
2022/12/04 00:42:52;;;;;;;62.85;51.15;;;;;;;0.89;100.00;102626.50;5096074;28;20441;-86
2022/12/04 00:45:27;;;;;;;65.57;53.05;;;;;;;0.98;100.00;102629.47;5096355;28;20052;-86
2022/12/04 00:47:55;;;;;;;72.70;55.10;;;;;;;0.79;100.00;102627.19;5096039;28;20105;-85
2022/12/04 00:50:27;;;;;;;71.22;54.80;;;;;;;0.74;100.00;102632.69;5077594;28;20049;-85
2022/12/04 00:53:04;;;;;;;71.00;56.13;;;;;;;0.90;100.00;102624.72;5095657;28;20044;-85
2022/12/04 00:55:39;;;;;;;70.45;52.00;;;;;;;0.72;100.00;102633.72;5077064;28;20052;-86
2022/12/04 00:58:28;;;;;;;69.75;53.42;;;;;;;0.69;100.00;102632.94;5080177;28;20043;-84
2022/12/04 01:01:02;;;;;;;72.10;53.47;;;;;;;0.66;100.00;102630.53;5084095;22;20053;-93
2022/12/04 01:03:28;;;;;;;68.55;51.30;;;;;;;0.70;100.00;102625.97;5071622;28;20040;-92
2022/12/04 01:05:57;;;;;;;68.00;52.67;;;;;;;0.71;100.00;102630.25;5066567;28;20048;-92
2022/12/04 01:08:23;;;;;;;72.70;53.08;;;;;;;0.78;100.00;102635.94;5074135;28;20129;-93
2022/12/04 01:10:53;;;;;;;69.30;53.03;;;;;;;0.80;100.00;102626.22;5075152;28;20177;-92
2022/12/04 01:13:22;;;;;;;65.35;50.05;;;;;;;0.80;100.00;102615.78;5074857;28;20041;-91
2022/12/04 01:15:49;;;;;;;69.30;52.80;;;;;;;0.73;100.00;102617.94;5074198;28;20125;-92
2022/12/04 01:18:17;;;;;;;75.18;55.13;;;;;;;0.73;100.00;102631.00;5074452;28;20113;-92
2022/12/04 01:20:47;;;;;;;77.13;55.13;;;;;;;0.69;100.00;102625.09;5073478;28;20429;-92
2022/12/04 01:25:59;;;;;;;78.57;56.42;;;;;;;0.85;100.00;102630.25;5112225;27;20403;-86
2022/12/04 01:28:26;;;;;;;72.03;55.42;;;;;;;0.68;100.00;102630.44;5104754;28;20045;-87
2022/12/04 01:31:01;;;;;;;78.38;56.58;;;;;;;0.76;100.00;102641.28;5091477;28;20063;-85
2022/12/04 01:33:40;;;;;;;71.40;56.97;;;;;;;0.73;100.00;102638.00;5091835;28;20117;-84
2022/12/04 01:36:12;;;;;;;79.70;58.38;;;;;;;0.79;100.00;102625.41;5081500;28;20434;-85
2022/12/04 01:38:39;;;;;;;78.57;58.92;;;;;;;0.91;100.00;102622.00;5091783;28;20434;-85
2022/12/04 01:41:28;;;;;;;80.30;61.38;;;;;;;0.80;100.00;102627.06;5091603;28;20090;-86
2022/12/04 01:44:12;;;;;;;81.70;58.85;;;;;;;0.78;100.00;102625.47;5091522;28;20044;-86
2022/12/04 01:47:03;;;;;;;82.22;60.10;;;;;;;0.79;100.00;102617.56;5079579;28;20052;-85
2022/12/04 01:49:39;;;;;;;78.65;59.33;;;;;;;0.81;100.00;102620.88;5071318;28;20458;-86
2022/12/04 01:52:11;;;;;;;81.10;61.40;;;;;;;0.86;100.00;102625.84;5087188;28;20048;-86
2022/12/04 01:54:40;;;;;;;;;;;;;;;0.68;100.00;102612.13;5091752;28;20044;-87
2022/12/04 01:57:14;;;;;;;76.88;58.10;;;;;;;0.71;100.00;102611.13;5091314;28;19924;-86
2022/12/04 01:59:47;;;;;;;76.18;56.88;;;;;;;0.77;100.00;102613.34;5104569;28;20117;-85
2022/12/04 02:02:25;;;;;;;80.45;57.20;;;;;;;0.74;100.00;102603.91;5070676;28;20469;-87
2022/12/04 02:05:22;;;;;;;87.28;62.05;;;;;;;0.72;100.00;102602.31;5087336;28;20052;-85
2022/12/04 02:08:00;;;;;;;77.20;58.53;;;;;;;0.80;100.00;102594.84;5106677;28;20048;-86
2022/12/04 02:10:50;;;;;;;78.40;58.70;;;;;;;0.80;100.00;102600.91;5106571;28;20040;-85
2022/12/04 02:13:30;;;;;;;75.60;57.10;;;;;;;0.87;100.00;102603.97;5092466;28;20052;-86
2022/12/04 02:16:06;;;;;;;75.07;59.03;;;;;;;0.80;100.00;102598.28;5105063;28;20449;-86
2022/12/04 02:18:57;;;;;;;70.75;55.63;;;;;;;0.78;100.00;102589.69;5090953;28;20447;-85
2022/12/04 02:21:36;;;;;;;74.40;56.28;;;;;;;0.79;100.00;102599.25;5090623;28;20459;-85
2022/12/04 02:24:32;;;;;;;69.22;51.97;;;;;;;0.77;100.00;102587.19;5095569;28;20135;-86
2022/12/04 02:27:16;;;;;;;66.32;54.05;;;;;;;0.84;100.00;102594.53;5111039;28;20113;-85
2022/12/04 02:30:02;;;;;;;66.72;54.65;;;;;;;0.78;100.00;102596.69;5092585;28;20506;-86
2022/12/04 02:32:39;;;;;;;69.68;57.63;;;;;;;0.87;100.00;102599.56;5069996;28;20044;-85
2022/12/04 02:35:14;;;;;;;67.40;52.95;;;;;;;0.81;100.00;102601.75;5069363;28;20044;-85
2022/12/04 02:38:06;;;;;;;70.18;53.78;;;;;;;0.85;100.00;102605.88;5065814;28;20048;-86
2022/12/04 02:40:54;;;;;;;63.95;56.47;;;;;;;0.80;100.00;102607.91;5076894;28;20110;-86
2022/12/04 02:43:33;;;;;;;60.38;52.80;;;;;;;0.81;100.00;102601.75;5063157;28;20048;-86
2022/12/04 02:46:28;;;;;;;60.88;52.10;;;;;;;0.75;100.00;102597.72;5078239;28;20052;-85
2022/12/04 02:49:17;;;;;;;62.03;54.33;;;;;;;0.72;100.00;102602.31;5088808;28;20052;-85
2022/12/04 02:51:49;;;;;;;61.92;51.00;;;;;;;0.87;100.00;102596.97;5086360;28;20435;-85
2022/12/04 02:54:31;;;;;;;58.08;49.75;;;;;;;0.85;100.00;102601.47;5079958;28;20044;-85
2022/12/04 02:57:02;;;;;;;60.80;52.47;;;;;;;0.85;100.00;102609.31;5056918;28;20087;-86
2022/12/04 02:59:41;;;;;;;64.28;52.53;;;;;;;0.87;100.00;102615.28;5072384;28;20056;-85
2022/12/04 03:02:17;;;;;;;56.97;49.17;;;;;;;0.83;100.00;102603.34;5068894;28;20056;-85
2022/12/04 03:05:00;;;;;;;63.00;50.75;;;;;;;0.86;100.00;102603.13;5068718;28;20083;-86
2022/12/04 03:07:38;;;;;;;62.40;55.67;;;;;;;0.88;100.00;102603.06;5087527;28;20044;-85
2022/12/04 03:10:18;;;;;;;62.15;52.45;;;;;;;1.00;100.00;102611.88;5084129;28;20474;-85
2022/12/04 03:13:00;;;;;;;62.38;53.50;;;;;;;0.91;100.00;102613.31;5076952;28;20053;-85
2022/12/04 03:15:32;;;;;;;63.83;55.85;;;;;;;1.03;100.00;102620.41;5076056;28;20055;-86
2022/12/04 03:18:13;;;;;;;60.22;53.67;;;;;;;1.01;100.00;102617.03;5068273;28;20049;-86
2022/12/04 03:20:42;;;;;;;63.35;53.38;;;;;;;0.91;100.00;102601.09;5060215;28;20045;-86
2022/12/04 03:23:16;;;;;;;67.30;56.20;;;;;;;1.01;100.00;102595.25;5076144;28;20121;-86
2022/12/04 03:26:31;;;;;;;67.28;58.38;;;;;;;1.03;100.00;102603.84;5094418;28;20472;-86
2022/12/04 03:29:09;;;;;;;69.97;62.33;;;;;;;1.02;100.00;102599.56;5096389;28;20114;-85
2022/12/04 03:32:00;;;;;;;67.90;57.78;;;;;;;1.09;100.00;102596.47;5095201;28;20113;-86
2022/12/04 03:34:39;;;;;;;59.53;53.13;;;;;;;1.07;100.00;102600.09;5071100;28;20101;-84
2022/12/04 03:37:18;;;;;;;59.05;52.75;;;;;;;1.03;100.00;102591.63;5078268;28;20052;-85
2022/12/04 03:40:02;;;;;;;58.05;51.75;;;;;;;1.03;100.00;102589.00;5062128;28;20082;-85
2022/12/04 03:42:35;;;;;;;56.47;50.42;;;;;;;1.02;100.00;102582.06;5075588;28;20105;-85
2022/12/04 03:48:24;;;;;;;56.78;51.17;;;;;;;1.10;100.00;102573.75;5071419;27;20397;-86
2022/12/04 03:50:58;;;;;;;53.73;47.97;;;;;;;1.31;100.00;102589.84;5071265;28;20061;-87
2022/12/04 03:53:32;;;;;;;58.38;52.38;;;;;;;1.06;100.00;102587.94;5071395;28;20117;-86
2022/12/04 03:56:11;;;;;;;58.08;51.97;;;;;;;1.18;100.00;102596.78;5051774;28;20397;-87
2022/12/04 03:59:00;;;;;;;58.88;52.83;;;;;;;1.19;100.00;102582.78;5051446;28;20048;-86
2022/12/04 04:01:32;;;;;;;63.72;57.20;;;;;;;1.22;100.00;102583.41;5061092;28;20060;-87
2022/12/04 04:04:27;;;;;;;65.90;58.83;;;;;;;1.31;100.00;102574.97;5071416;28;20466;-87
2022/12/04 04:07:05;;;;;;;61.17;54.88;;;;;;;1.22;100.00;102572.94;5051083;28;20049;-87
2022/12/04 04:10:01;;;;;;;59.58;53.65;;;;;;;1.19;100.00;102588.00;5060506;28;20072;-87
2022/12/04 04:12:36;;;;;;;56.33;50.33;;;;;;;1.16;100.00;102577.75;5071490;28;20118;-87
2022/12/04 04:26:39;;;;;;;57.47;51.35;;;;;;;1.21;100.00;102583.50;5070909;28;20051;-86
2022/12/04 04:29:17;;;;;;;;;;;;;;;1.26;100.00;102584.06;5071104;28;20045;-85
2022/12/04 04:31:52;;;;;;;57.92;51.97;;;;;;;1.33;100.00;102582.69;5070796;28;19931;-87
2022/12/04 04:34:50;;;;;;;56.88;50.85;;;;;;;1.85;100.00;102592.38;5070502;28;20477;-86
2022/12/04 04:37:30;;;;;;;61.17;50.83;;;;;;;1.31;100.00;102579.38;5070671;28;20128;-87
2022/12/04 04:40:12;;;;;;;59.63;51.15;;;;;;;1.30;100.00;102581.16;5061225;28;20478;-87
2022/12/04 04:42:58;;;;;;;56.67;51.05;;;;;;;1.34;100.00;102576.53;5050550;28;20049;-87
2022/12/04 04:45:36;;;;;;;60.17;53.67;;;;;;;1.35;100.00;102580.84;5050704;28;20443;-86
2022/12/04 04:48:14;;;;;;;64.47;56.15;;;;;;;1.38;100.00;102585.88;5068507;28;20060;-86
2022/12/04 04:50:52;;;;;;;59.65;52.35;;;;;;;1.24;100.00;102584.16;5066621;28;20504;-85
2022/12/04 04:53:37;;;;;;;59.35;52.33;;;;;;;1.19;100.00;102567.91;5050346;28;20049;-86
2022/12/04 04:56:08;;;;;;;57.17;50.78;;;;;;;1.26;100.00;102579.66;5050689;28;20378;-86
2022/12/04 04:58:49;;;;;;;57.75;48.67;;;;;;;1.57;100.00;102575.88;5045246;28;20053;-87
2022/12/04 05:01:21;;;;;;;61.28;53.35;;;;;;;1.50;100.00;102582.44;5045056;28;20451;-87
2022/12/04 05:04:17;;;;;;;58.53;52.33;;;;;;;1.38;100.00;102588.50;5057028;28;20102;-87
2022/12/04 05:06:52;;;;;;;64.72;57.00;;;;;;;1.42;100.00;102589.13;4986882;28;20380;-86
2022/12/04 05:09:21;;;;;;;60.05;53.40;;;;;;;1.58;100.00;102584.56;5037290;28;20064;-85
2022/12/04 05:11:50;;;;;;;61.42;54.78;;;;;;;1.63;100.00;102585.09;5056767;28;20057;-87
2022/12/04 05:14:24;;;;;;;61.72;54.95;;;;;;;1.49;100.00;102587.81;5045312;28;20135;-86
2022/12/04 05:16:51;;;;;;;74.57;59.58;;;;;;;1.41;100.00;102582.22;5036704;28;20041;-86
2022/12/04 05:19:55;;;;;;;56.95;50.85;;;;;;;1.38;100.00;102584.09;5036862;28;20115;-86
2022/12/04 05:22:37;;;;;;;56.67;50.63;;;;;;;1.43;100.00;102586.41;5050552;28;20118;-86
2022/12/04 05:25:08;;;;;;;55.40;49.70;;;;;;;1.42;100.00;102583.88;5056713;28;20056;-86
2022/12/04 05:30:42;;;;;;;61.28;53.47;;;;;;;1.42;100.00;102591.75;5091665;27;20392;-86
2022/12/04 05:33:10;;;;;;;57.63;51.60;;;;;;;1.35;100.00;102593.94;5091451;28;20121;-87
2022/12/04 05:35:56;;;;;;;58.83;52.60;;;;;;;1.45;100.00;102602.00;5055958;28;20099;-86
2022/12/04 05:38:39;;;;;;;59.30;53.17;;;;;;;1.41;100.00;102590.91;5068746;28;20041;-87
2022/12/04 05:41:09;;;;;;;67.95;57.22;;;;;;;1.44;100.00;102595.94;5071209;28;20447;-86
2022/12/04 05:43:37;;;;;;;75.07;59.47;;;;;;;1.43;100.00;102606.53;5071453;28;20044;-87
2022/12/04 05:46:09;;;;;;;62.13;52.75;;;;;;;1.51;100.00;102610.34;5065184;28;20099;-86
2022/12/04 05:48:57;;;;;;;65.38;53.58;;;;;;;1.54;100.00;102606.66;5056480;28;20055;-88
2022/12/04 05:51:37;;;;;;;56.70;50.92;;;;;;;1.60;100.00;102612.34;5071171;28;20106;-87
2022/12/04 05:54:13;;;;;;;55.88;50.17;;;;;;;1.62;100.00;102619.25;5070916;28;20534;-85
2022/12/04 05:57:20;;;;;;;56.08;50.10;;;;;;;1.70;100.00;102624.84;5071360;28;20060;-87
2022/12/04 05:59:50;;;;;;;58.40;51.63;;;;;;;1.56;100.00;102621.31;5069423;28;20114;-86
2022/12/04 06:02:35;;;;;;;55.35;49.65;;;;;;;1.70;100.00;102623.06;5071007;28;20113;-86
2022/12/04 06:05:17;;;;;;;56.90;51.28;;;;;;;1.58;100.00;102619.47;5071049;28;20134;-85
2022/12/04 06:08:16;;;;;;;60.97;54.70;;;;;;;1.62;100.00;102622.72;5070866;28;20133;-87
2022/12/04 06:10:48;;;;;;;61.92;55.50;;;;;;;1.60;100.00;102622.81;5050481;28;20056;-87
2022/12/04 06:13:29;;;;;;;59.05;53.00;;;;;;;1.59;100.00;102621.13;5053980;28;20056;-86
2022/12/04 06:16:15;;;;;;;88.65;64.47;;;;;;;1.62;100.00;102630.56;5070765;28;20416;-87
2022/12/04 06:18:51;;;;;;;69.13;60.85;;;;;;;1.62;100.00;102642.84;5069417;28;20087;-86
2022/12/04 06:21:35;;;;;;;70.38;62.72;;;;;;;1.63;100.00;102639.25;5056257;28;20045;-87
2022/12/04 06:24:08;;;;;;;61.92;55.10;;;;;;;1.72;100.00;102641.28;5056712;28;20404;-85
2022/12/04 06:27:11;;;;;;;;;;;;;;;1.66;100.00;102637.28;5071132;28;20045;-87
2022/12/04 06:29:40;;;;;;;62.13;54.33;;;;;;;1.72;100.00;102636.88;5071814;28;19982;-86
2022/12/04 06:32:08;;;;;;;66.63;59.17;;;;;;;1.66;100.00;102641.69;5057212;28;20061;-85
2022/12/04 06:34:38;;;;;;;61.63;53.72;;;;;;;1.64;100.00;102639.19;5059612;28;20053;-86
2022/12/04 06:37:06;;;;;;;56.58;50.47;;;;;;;1.59;100.00;102641.25;5070884;28;20056;-87
2022/12/04 06:39:49;;;;;;;55.13;49.28;;;;;;;1.70;100.00;102656.28;5069690;28;20056;-85
2022/12/04 06:42:18;;;;;;;60.38;53.97;;;;;;;1.60;100.00;102653.41;5056111;28;20139;-85
2022/12/04 06:44:49;;;;;;;78.53;56.92;;;;;;;2.10;100.00;102657.09;5056041;28;20045;-85
2022/12/04 06:47:16;;;;;;;58.75;51.88;;;;;;;1.72;100.00;102657.81;5056398;28;20056;-85
2022/12/04 06:49:44;;;;;;;53.78;48.25;;;;;;;1.68;100.00;102645.88;5049213;28;20056;-85
2022/12/04 06:52:12;;;;;;;62.72;55.92;;;;;;;1.67;100.00;102649.47;5049160;28;20489;-85
2022/12/04 06:54:40;;;;;;;57.92;51.67;;;;;;;1.73;100.00;102642.97;5056015;28;20045;-86
2022/12/04 06:57:09;;;;;;;59.85;52.08;;;;;;;1.74;100.00;102642.84;5056489;28;20049;-86
2022/12/04 06:59:38;;;;;;;65.38;58.47;;;;;;;1.92;100.00;102645.22;5044220;28;20119;-87
2022/12/04 07:02:05;;;;;;;89.47;78.05;;;;;;;1.86;100.00;102662.19;5050452;28;20110;-86
2022/12/04 07:04:32;;;;;;;82.65;68.40;;;;;;;1.79;100.00;102660.91;5052692;28;20471;-85
2022/12/04 07:07:00;;;;;;;51.58;46.55;;;;;;;2.00;100.00;102658.66;5027991;28;20444;-85
2022/12/04 07:09:34;;;;;;;52.22;47.15;;;;;;;2.00;100.00;102672.59;4958350;28;20110;-85
2022/12/04 07:12:01;;;;;;;54.65;48.90;;;;;;;2.00;100.00;102667.34;5055961;28;20060;-86
2022/12/04 07:14:28;;;;;;;52.42;47.22;;;;;;;1.95;100.00;102666.81;5040520;28;20065;-86
2022/12/04 07:16:57;;;;;;;54.20;48.15;;;;;;;2.01;100.00;102665.56;5038657;28;20473;-85
2022/12/04 07:19:24;;;;;;;52.38;47.15;;;;;;;1.96;100.00;102665.84;5036245;28;20056;-86
2022/12/04 07:21:58;;;;;;;55.08;49.05;;;;;;;2.08;100.00;102672.06;5037754;28;20045;-85
2022/12/04 07:24:26;;;;;;;70.72;63.00;;;;;;;2.13;100.00;102680.47;5047345;28;20053;-85
2022/12/04 07:27:04;;;;;;;60.17;54.10;;;;;;;2.04;100.00;102671.44;5051821;28;20497;-87
2022/12/04 07:29:31;;;;;;;51.50;46.35;;;;;;;2.04;100.00;102671.44;5034969;28;20045;-86
2022/12/04 07:32:14;;;;;;;54.92;49.38;;;;;;;2.05;100.00;102664.41;5035429;28;20053;-86
2022/12/04 07:34:43;;;;;;;62.38;52.03;;;;;;;2.07;100.00;102667.78;5035426;28;20050;-85
2022/12/04 07:37:19;;;;;;;59.97;52.58;;;;;;;2.08;100.00;102668.59;5044297;28;20480;-86
2022/12/04 07:39:52;;;;;;;78.82;59.42;;;;;;;2.18;100.00;102667.91;5059734;28;20620;-86
2022/12/04 07:42:32;;;;;;;54.28;48.65;;;;;;;2.13;100.00;102669.97;5045442;28;20397;-85
2022/12/04 07:44:59;;;;;;;55.17;49.35;;;;;;;2.06;100.00;102676.59;5054552;28;20053;-86
2022/12/04 07:47:27;;;;;;;57.45;51.63;;;;;;;2.13;100.00;102674.41;5042922;28;20064;-86
2022/12/04 08:00:09;;;;;;;53.47;48.25;;;;;;;2.20;100.00;102680.91;5030078;28;20045;-85
2022/12/04 08:02:36;;;;;;;62.25;55.58;;;;;;;2.29;100.00;102682.91;5038878;28;20057;-86
2022/12/04 08:05:03;;;;;;;63.15;56.40;;;;;;;2.42;100.00;102694.25;5041749;28;20115;-87
2022/12/04 08:07:30;;;;;;;59.92;53.65;;;;;;;2.43;100.00;102689.84;5048368;28;20618;-84
2022/12/04 08:09:56;;;;;;;66.05;57.30;;;;;;;2.46;100.00;102685.22;5044658;28;20053;-86
2022/12/04 08:12:23;;;;;;;62.22;55.70;;;;;;;2.66;100.00;102688.25;5045855;28;20460;-85
2022/12/04 08:14:50;;;;;;;75.45;64.97;;;;;;;2.59;100.00;102685.22;5047554;28;20056;-85
2022/12/04 08:20:12;;;;;;;62.72;56.17;;;;;;;2.58;100.00;102675.66;5080854;27;20932;-86
2022/12/04 08:22:39;;;;;;;64.18;56.72;;;;;;;2.73;100.00;102679.03;5078908;28;20055;-86
2022/12/04 08:25:06;;;;;;;64.13;56.42;;;;;;;2.78;100.00;102668.19;5077022;28;20048;-87
2022/12/04 08:27:33;;;;;;;85.15;68.47;;;;;;;2.69;100.00;102672.28;5070570;28;20178;-86
2022/12/04 08:30:00;;;;;;;58.35;50.92;;;;;;;2.86;100.00;102668.50;5078669;28;20404;-86
2022/12/04 08:32:27;;;;;;;55.30;49.80;;;;;;;2.69;100.00;102677.53;5074956;28;20053;-86
2022/12/04 08:34:53;;;;;;;54.53;49.10;;;;;;;2.79;100.00;102664.63;5083393;28;20048;-86
2022/12/04 08:37:22;;;;;;;55.83;49.85;;;;;;;2.75;100.00;102663.97;5081902;28;20132;-85
2022/12/04 08:39:49;;;;;;;63.95;53.88;;;;;;;2.68;100.00;102668.00;5086167;28;20101;-85
2022/12/04 08:42:17;;;;;;;57.08;51.03;;;;;;;2.72;100.00;102670.31;5075419;28;20052;-85
2022/12/04 08:44:44;;;;;;;67.97;61.72;;;;;;;2.66;100.00;102664.63;5068467;28;20067;-85
2022/12/04 08:47:11;;;;;;;71.25;63.85;;;;;;;2.72;100.00;102659.81;5062902;28;20040;-85
2022/12/04 08:49:49;;;;;;;74.68;67.22;;;;;;;2.81;100.00;102660.09;5061875;28;20145;-87
2022/12/04 08:52:17;;;;;;;72.68;65.15;;;;;;;2.88;100.00;102651.69;5064760;28;20060;-85
2022/12/04 08:54:45;;;;;;;73.13;65.10;;;;;;;2.94;100.00;102647.81;5076675;28;20143;-85
2022/12/04 08:57:13;;;;;;;79.88;71.20;;;;;;;3.18;100.00;102647.84;5067816;28;20048;-83
2022/12/04 08:59:41;;;;;;;80.47;70.00;;;;;;;2.93;100.00;102636.44;5070407;28;20045;-85
2022/12/04 09:02:09;;;;;;;86.93;74.57;;;;;;;3.06;100.00;102646.94;5066879;28;20128;-86
2022/12/04 09:04:36;;;;;;;102.97;79.10;;;;;;;3.08;100.00;102652.88;5069237;28;20056;-84
2022/12/04 09:07:03;;;;;;;101.72;84.43;;;;;;;2.97;100.00;102650.22;5059348;28;20045;-84
2022/12/04 09:09:31;;;;;;;84.25;74.63;;;;;;;2.75;100.00;102651.72;5071148;28;20052;-85
2022/12/04 09:12:00;;;;;;;88.63;79.05;;;;;;;2.85;100.00;102638.78;5073126;28;20045;-86
2022/12/04 09:14:26;;;;;;;63.53;55.80;;;;;;;2.83;100.00;102632.81;5078847;28;20052;-84
2022/12/04 09:16:53;;;;;;;63.50;55.55;;;;;;;2.87;100.00;102636.88;5056692;28;20048;-83
2022/12/04 09:19:20;;;;;;;58.63;51.08;;;;;;;2.97;100.00;102624.78;5063813;28;20064;-84
2022/12/04 09:21:47;;;;;;;82.38;73.40;;;;;;;2.91;100.00;102619.97;5059496;28;20041;-83
2022/12/04 09:24:14;;;;;;;82.90;75.22;;;;;;;3.15;100.00;102624.44;5055203;28;20041;-84
2022/12/04 09:26:42;;;;;;;78.97;71.57;;;;;;;3.07;100.00;102617.09;5066017;28;20056;-84
2022/12/04 09:29:12;;;;;;;85.13;76.05;;;;;;;3.13;100.00;102624.53;5067135;28;20480;-85
2022/12/04 09:31:39;;;;;;;84.88;75.50;;;;;;;3.16;100.00;102626.94;5060124;28;20053;-85
2022/12/04 09:34:07;;;;;;;127.53;102.95;;;;;;;3.18;100.00;102614.53;5059550;28;20049;-86
2022/12/04 09:36:34;;;;;;;84.68;75.55;;;;;;;3.20;100.00;102598.66;5065487;28;20048;-84
2022/12/04 09:42:10;;;;;;;92.78;82.78;;;;;;;3.65;100.00;102585.72;5103358;27;20394;-86
2022/12/04 09:44:41;;;;;;;88.65;79.53;;;;;;;3.43;100.00;102578.59;5069570;28;20060;-85
2022/12/04 09:47:19;;;;;;;88.20;78.82;;;;;;;4.08;100.00;102575.38;5069945;28;20056;-87
2022/12/04 09:49:50;;;;;;;89.15;80.82;;;;;;;3.84;100.00;102577.25;5069637;28;20048;-86
2022/12/04 09:54:58;;;;;;;93.70;84.20;;;;;;;3.99;100.00;102557.69;5136425;27;20118;-86
2022/12/04 09:57:35;;;;;;;86.10;77.32;;;;;;;3.90;100.00;102554.00;5097377;28;20064;-87
2022/12/04 10:00:05;;;;;;;85.70;77.10;;;;;;;4.01;100.00;102554.97;5082732;28;20147;-86
2022/12/04 10:02:37;;;;;;;84.40;76.53;;;;;;;4.29;100.00;102543.97;5081876;28;20106;-86
2022/12/04 10:05:05;;;;;;;85.73;78.20;;;;;;;4.47;100.00;102541.69;5076527;28;20052;-86
2022/12/04 10:07:40;;;;;;;83.10;75.32;;;;;;;4.48;100.00;102537.25;5078649;28;20437;-85
2022/12/04 10:10:18;;;;;;;95.25;86.78;;;;;;;4.83;100.00;102529.16;5085665;28;20055;-86
2022/12/04 10:12:54;;;;;;;86.88;78.15;;;;;;;4.13;100.00;102527.72;5097322;28;20071;-86
2022/12/04 10:15:32;;;;;;;76.50;69.25;;;;;;;4.92;100.00;102535.50;5084213;28;20435;-86
2022/12/04 10:18:12;;;;;;;77.18;69.90;;;;;;;4.30;100.00;102529.03;5090058;28;20040;-85
2022/12/04 10:21:08;;;;;;;74.40;67.30;;;;;;;4.53;100.00;102535.09;5126662;27;20402;-84
2022/12/04 10:23:48;;;;;;;79.90;72.55;;;;;;;4.39;100.00;102524.81;5117582;28;20048;-85
2022/12/04 10:26:16;;;;;;;79.93;71.82;;;;;;;4.28;100.00;102525.69;5111190;28;20052;-84
2022/12/04 10:28:48;;;;;;;75.70;68.40;;;;;;;4.47;100.00;102533.78;5111643;28;20048;-85
2022/12/04 10:31:15;;;;;;;82.45;74.82;;;;;;;4.38;100.00;102534.50;5116219;28;20047;-84
2022/12/04 10:33:47;;;;;;;48.92;44.95;;;;;;;4.68;100.00;102527.78;5111980;28;20100;-86
2022/12/04 10:39:20;;;;;;;48.13;43.85;;;;;;;4.50;100.00;102530.91;5127379;27;20413;-87
2022/12/04 10:41:55;;;;;;;53.00;48.33;;;;;;;4.55;100.00;102536.66;5107254;28;20504;-85
2022/12/04 10:44:22;;;;;;;51.97;47.45;;;;;;;4.42;100.00;102532.47;5110598;28;20557;-86
2022/12/04 10:46:50;;;;;;;49.58;45.50;;;;;;;4.73;100.00;102531.72;5114885;28;20059;-87
2022/12/04 10:49:19;;;;;;;50.45;45.95;;;;;;;4.11;100.00;102522.59;5115614;28;20109;-86
2022/12/04 10:54:33;;;;;;;49.30;45.40;;;;;;;4.38;100.00;102529.25;5125800;27;20422;-85
2022/12/04 10:57:02;;;;;;;65.07;58.83;;;;;;;4.15;100.00;102532.88;5108896;27;20079;-86
2022/12/04 10:59:30;;;;;;;50.35;45.92;;;;;;;4.98;100.00;102514.75;5113300;28;20121;-86
2022/12/04 11:02:02;;;;;;;51.88;47.67;;;;;;;4.87;100.00;102499.03;5114746;28;20065;-86
2022/12/04 11:04:31;;;;;;;54.38;49.88;;;;;;;4.44;100.00;102512.16;5118062;28;20101;-85
2022/12/04 11:07:03;;;;;;;52.75;48.35;;;;;;;4.14;100.00;102505.69;5113656;28;20054;-86
2022/12/04 11:09:33;;;;;;;52.80;48.05;;;;;;;4.21;100.00;102509.53;5112249;28;20498;-86
2022/12/04 11:12:08;;;;;;;50.17;45.83;;;;;;;4.28;100.00;102502.84;5114434;28;20048;-85
2022/12/04 11:14:35;;;;;;;50.80;46.63;;;;;;;4.30;100.00;102505.34;5115587;28;20040;-86
2022/12/04 11:17:08;;;;;;;49.15;45.08;;;;;;;4.32;100.00;102504.25;5116548;28;20104;-86
2022/12/04 11:19:44;;;;;;;54.05;49.08;;;;;;;4.02;100.00;102494.34;5114890;28;20043;-85
2022/12/04 11:22:24;;;;;;;53.90;49.30;;;;;;;4.46;100.00;102492.66;5118815;28;20078;-86
2022/12/04 11:25:01;;;;;;;51.92;47.92;;;;;;;4.63;100.00;102498.34;5113392;28;20395;-85
2022/12/04 11:27:31;;;;;;;51.47;47.22;;;;;;;4.35;100.00;102500.56;5109201;28;20036;-86
2022/12/04 11:30:04;;;;;;;52.17;47.78;;;;;;;4.58;100.00;102496.94;5115215;28;20048;-85
2022/12/04 11:32:34;;;;;;;51.28;47.03;;;;;;;4.58;100.00;102485.56;5118841;28;20540;-86
2022/12/04 11:35:19;;;;;;;58.65;53.40;;;;;;;4.61;100.00;102482.69;4752618;28;10000469;-86
2022/12/04 11:40:39;;;;;;;54.70;49.92;;;;;;;4.87;100.00;102475.31;5121148;27;1483344;-86
2022/12/04 11:43:18;;;;;;;56.75;51.67;;;;;;;4.42;100.00;102478.06;5161855;27;20455;-85
2022/12/04 11:46:37;;;;;;;53.03;48.63;;;;;;;4.36;100.00;102478.56;5156559;27;20108;-84
2022/12/04 11:59:00;;;;;;;50.20;46.45;;;;;;;4.61;100.00;102451.09;5116176;28;20088;-85
2022/12/04 12:01:44;;;;;;;48.85;44.95;;;;;;;4.74;100.00;102443.03;5115461;28;20405;-86
2022/12/04 22:14:53;;;;;;;39.17;35.90;;;;;;;3.89;100.00;102512.03;5141439;27;20403;-85
2022/12/04 22:17:22;;;;;;;39.30;36.20;;;;;;;3.73;100.00;102512.38;5054529;27;20430;-83
2022/12/04 22:19:49;;;;;;;40.17;37.03;;;;;;;3.83;100.00;102513.34;5090890;28;20056;-83
2022/12/04 22:22:16;;;;;;;40.90;37.70;;;;;;;3.65;100.00;102515.59;5090634;28;21782;-82
2022/12/04 22:24:49;;;;;;;41.88;38.38;;;;;;;3.67;100.00;102512.84;5088671;28;20450;-86
2022/12/04 22:27:18;;;;;;;43.38;40.17;;;;;;;3.83;100.00;102518.59;5088532;28;20056;-82
2022/12/04 22:29:45;;;;;;;46.08;42.58;;;;;;;3.97;100.00;102514.91;5080663;28;20044;-84
2022/12/04 22:32:13;;;;;;;44.30;40.75;;;;;;;3.67;100.00;102510.22;5080506;28;20048;-83
2022/12/04 22:34:40;;;;;;;44.42;40.95;;;;;;;3.80;100.00;102512.75;5080604;28;20118;-86
2022/12/04 22:37:07;;;;;;;43.83;40.33;;;;;;;3.76;100.00;102508.69;5056189;28;20439;-82
2022/12/04 22:39:33;;;;;;;45.08;41.38;;;;;;;3.70;100.00;102503.91;5082241;28;20045;-86
2022/12/04 22:42:00;;;;;;;43.20;39.95;;;;;;;3.74;100.00;102500.91;5070981;28;20056;-83
2022/12/04 22:44:27;;;;;;;43.55;40.05;;;;;;;3.54;100.00;102489.31;5077331;28;20109;-84
2022/12/04 22:46:54;;;;;;;44.10;40.33;;;;;;;3.72;100.00;102491.47;5074365;28;20056;-82
2022/12/04 22:49:22;;;;;;;48.03;43.80;;;;;;;4.00;100.00;102490.19;5048258;28;20101;-85
2022/12/04 22:51:48;;;;;;;48.20;44.10;;;;;;;4.81;100.00;102486.31;5075315;28;20454;-86